Terminal Aerodrome Forecast
Issued by NWS Cleveland, OH

Home | Current Version | Previous Version | Graphics & Text | Print | Product List | Glossary On
Versions: 1 2 3 4 5 6 7 8 9 10 11 12 13 14
000
FTUS41 KCLE 210946 AAA
TAFTOL
TAF AMD
KTOL 210946Z 2110/2206 25010KT P6SM SCT120
     FM211600 27012G20KT P6SM SCT035
     FM212200 27010KT P6SM BKN025 OVC040=

USA.gov is the U.S. government's official web portal to all federal, state and local government web resources and services.